Time;durP1;ratioP1;P1;durP2;ratioP2;P2;SDS_P1;SDS_P2;PMS_P1;PMS_P2;Temp;Humidity;BMP_temperature;BMP_pressure;BME280_temperature;BME280_humidity;BME280_pressure;Samples;Min_cycle;Max_cycle;Signal;HPM_P1;HPM_P2
2020/12/31 00:00:36;;;;;;;10.05;9.05;;;;;;;3.75;78.66;99261.03;10343070;28;20043;-66
2020/12/31 00:05:37;;;;;;;9.00;8.10;;;;;;;3.73;78.25;99262.94;10341211;28;20505;-67
2020/12/31 00:10:39;;;;;;;10.60;8.63;;;;;;;3.75;78.30;99263.69;10341332;28;20061;-66
2020/12/31 00:15:41;;;;;;;10.65;8.60;;;;;;;3.62;78.86;99257.56;10347071;28;20453;-68
2020/12/31 00:20:42;;;;;;;10.55;8.75;;;;;;;3.73;78.19;99255.06;10349413;28;20051;-67
2020/12/31 00:25:52;;;;;;;8.45;7.63;;;;;;;3.49;78.16;99208.41;10371464;28;20129;-67
2020/12/31 00:30:53;;;;;;;9.48;8.23;;;;;;;3.71;77.72;99233.28;10331824;28;20050;-67
2020/12/31 00:35:56;;;;;;;7.97;7.18;;;;;;;3.78;77.11;99245.03;10302867;28;20046;-67
2020/12/31 00:40:59;;;;;;;8.77;7.85;;;;;;;3.48;77.14;99201.47;10346872;28;20042;-66
2020/12/31 00:46:00;;;;;;;9.93;7.72;;;;;;;3.71;77.44;99244.63;10346399;28;20076;-68
2020/12/31 00:51:02;;;;;;;9.40;7.93;;;;;;;3.70;76.97;99247.38;10344808;28;20078;-67
2020/12/31 00:56:03;;;;;;;8.52;7.60;;;;;;;3.71;77.21;99243.78;10346426;28;20488;-67
2020/12/31 01:01:05;;;;;;;8.48;7.57;;;;;;;3.70;76.71;99242.94;10323543;28;20054;-67
2020/12/31 01:06:07;;;;;;;7.80;7.00;;;;;;;3.70;76.97;99242.09;10340974;22;20050;-61
2020/12/31 01:11:08;;;;;;;9.30;7.50;;;;;;;3.74;76.63;99232.19;10310058;28;20234;-61
2020/12/31 01:16:10;;;;;;;7.88;7.07;;;;;;;3.92;76.48;99240.63;10313090;28;20105;-62
2020/12/31 01:21:11;;;;;;;9.15;6.63;;;;;;;3.77;76.09;99240.75;10308171;28;20374;-62
2020/12/31 01:26:13;;;;;;;8.25;7.35;;;;;;;3.77;76.17;99248.63;10303267;28;20116;-62
2020/12/31 01:31:14;;;;;;;8.02;6.68;;;;;;;3.65;76.46;99238.94;10305396;28;20081;-62
2020/12/31 01:36:15;;;;;;;8.38;7.55;;;;;;;3.56;76.58;99240.41;10323267;28;20189;-61
2020/12/31 01:41:23;;;;;;;8.32;7.53;;;;;;;3.61;76.54;99234.84;10323241;28;20049;-62
2020/12/31 01:46:25;;;;;;;8.40;7.10;;;;;;;3.49;77.45;99224.19;10360315;28;20438;-62
2020/12/31 01:51:28;;;;;;;9.40;8.40;;;;;;;3.54;77.56;99227.38;10356330;28;20184;-62
2020/12/31 01:56:34;;;;;;;9.68;8.40;;;;;;;3.63;76.96;99225.03;10349580;28;20147;-62
2020/12/31 02:01:35;;;;;;;10.90;8.00;;;;;;;3.57;77.22;99220.19;10304419;28;20049;-61
2020/12/31 02:06:37;;;;;;;8.52;7.70;;;;;;;3.67;77.17;99226.53;10317385;28;20057;-63
2020/12/31 02:11:39;;;;;;;9.60;8.13;;;;;;;3.61;77.27;99221.69;10306403;28;20100;-62
2020/12/31 02:16:41;;;;;;;10.20;7.93;;;;;;;3.69;77.14;99221.97;10310323;28;20054;-63
2020/12/31 02:21:47;;;;;;;8.82;8.02;;;;;;;3.74;77.17;99217.25;10313369;28;20411;-63
2020/12/31 02:26:49;;;;;;;11.32;9.23;;;;;;;3.83;76.79;99215.78;10305312;28;20450;-62
2020/12/31 02:31:51;;;;;;;10.68;8.68;;;;;;;3.70;76.85;99221.03;10307688;28;20152;-63
2020/12/31 02:36:52;;;;;;;10.80;8.02;;;;;;;3.74;77.09;99221.66;10312979;28;20608;-63
2020/12/31 02:41:53;;;;;;;11.50;9.02;;;;;;;3.64;77.07;99211.78;10326605;28;20137;-63
2020/12/31 02:46:55;;;;;;;10.13;8.85;;;;;;;3.70;77.09;99211.34;10293815;28;20053;-63
2020/12/31 02:51:57;;;;;;;9.20;8.30;;;;;;;3.63;77.31;99206.63;10295361;28;20129;-63
2020/12/31 02:56:58;;;;;;;11.68;10.20;;;;;;;3.66;77.23;99198.50;10307746;28;20054;-63
2020/12/31 03:01:59;;;;;;;9.55;8.55;;;;;;;3.52;77.49;99195.03;10313124;28;20367;-63
2020/12/31 03:07:00;;;;;;;9.88;8.80;;;;;;;3.67;77.40;99194.94;10305491;28;20318;-64
2020/12/31 03:12:02;;;;;;;8.90;7.97;;;;;;;3.66;77.15;99191.47;10327067;28;20046;-63
2020/12/31 03:17:03;;;;;;;11.25;9.38;;;;;;;3.65;77.04;99196.84;10319039;28;20052;-63
2020/12/31 03:22:05;;;;;;;11.38;9.07;;;;;;;3.68;77.00;99186.09;10312785;28;20101;-63
2020/12/31 03:27:06;;;;;;;9.40;8.48;;;;;;;3.74;77.09;99195.34;10315382;28;20503;-63
2020/12/31 03:32:07;;;;;;;11.15;9.35;;;;;;;3.63;76.85;99175.88;10304108;28;20253;-61
2020/12/31 03:37:09;;;;;;;10.98;9.77;;;;;;;3.71;76.98;99176.19;10312602;28;20499;-61
2020/12/31 03:42:11;;;;;;;10.35;9.20;;;;;;;3.77;76.76;99172.31;10321453;28;20051;-62
2020/12/31 03:47:13;;;;;;;10.48;9.25;;;;;;;3.67;76.86;99168.63;10309979;28;20042;-61
2020/12/31 03:52:14;;;;;;;13.70;10.18;;;;;;;3.63;76.84;99156.63;10321830;28;20073;-61
2020/12/31 03:57:16;;;;;;;10.65;9.32;;;;;;;3.74;76.94;99154.09;10319864;28;20058;-62
2020/12/31 04:02:17;;;;;;;11.05;9.18;;;;;;;3.88;76.28;99148.69;10317669;28;20081;-62
2020/12/31 04:07:18;;;;;;;11.45;8.68;;;;;;;3.85;76.23;99151.53;10314701;28;20057;-63
2020/12/31 04:12:20;;;;;;;10.13;9.13;;;;;;;3.94;76.03;99146.59;10314723;28;20061;-62
2020/12/31 04:17:21;;;;;;;9.73;8.55;;;;;;;3.96;75.69;99152.56;10316068;28;20241;-63
2020/12/31 04:22:22;;;;;;;11.35;9.35;;;;;;;3.91;75.46;99145.00;10320468;28;20054;-62
2020/12/31 04:27:24;;;;;;;10.63;9.32;;;;;;;3.75;75.78;99128.59;10305324;28;20534;-62
2020/12/31 04:32:25;;;;;;;11.43;10.10;;;;;;;3.64;75.96;99126.72;10314574;28;20073;-62
2020/12/31 04:37:26;;;;;;;10.00;8.68;;;;;;;3.68;75.95;99129.03;10304675;28;20508;-62
2020/12/31 04:42:35;;;;;;;10.18;9.07;;;;;;;3.67;75.98;99116.81;10314660;28;20586;-62
2020/12/31 04:47:47;;;;;;;10.25;9.00;;;;;;;3.77;75.58;99122.28;10311849;28;20105;-62
2020/12/31 04:52:48;;;;;;;11.73;9.48;;;;;;;3.79;75.31;99130.91;10325472;28;20112;-62
2020/12/31 04:57:50;;;;;;;10.50;8.40;;;;;;;3.69;75.82;99122.81;10314032;28;20054;-62
2020/12/31 05:02:53;;;;;;;11.45;9.20;;;;;;;3.74;75.71;99130.41;10304866;28;20415;-62
2020/12/31 05:07:56;;;;;;;10.13;8.82;;;;;;;3.86;75.65;99126.91;10309432;28;20318;-63
2020/12/31 05:13:01;;;;;;;9.75;8.75;;;;;;;3.89;75.69;99125.84;10311418;28;20327;-62
2020/12/31 05:18:21;;;;;;;13.45;10.40;;;;;;;3.79;76.08;99123.00;10309360;28;20097;-63
2020/12/31 05:23:24;;;;;;;10.50;8.75;;;;;;;3.84;76.07;99118.28;10310619;28;20057;-62
2020/12/31 05:28:27;;;;;;;10.43;9.32;;;;;;;3.91;76.35;99112.56;10328802;28;20483;-62
2020/12/31 05:33:35;;;;;;;10.43;9.30;;;;;;;3.91;76.24;99118.66;10320056;28;20053;-62
2020/12/31 05:38:37;;;;;;;10.90;8.70;;;;;;;3.82;76.10;99108.78;10312244;28;20070;-62
2020/12/31 05:43:41;;;;;;;10.60;8.70;;;;;;;3.77;76.12;99095.09;10315348;28;20057;-62
2020/12/31 05:48:43;;;;;;;9.17;8.07;;;;;;;3.68;76.77;99104.50;10306790;28;20100;-63
2020/12/31 05:53:46;;;;;;;8.88;7.95;;;;;;;3.75;76.66;99091.75;10310421;28;20050;-62
2020/12/31 05:58:50;;;;;;;9.95;8.45;;;;;;;3.67;76.75;99102.81;10321485;28;20054;-62
2020/12/31 06:03:52;;;;;;;9.23;8.32;;;;;;;3.79;76.68;99095.84;10282074;28;20049;-62
2020/12/31 06:08:56;;;;;;;9.98;8.45;;;;;;;3.86;75.83;99105.84;10305847;28;20538;-62
2020/12/31 06:13:58;;;;;;;10.13;8.07;;;;;;;3.94;75.51;99102.66;10291617;28;20043;-62
2020/12/31 06:19:03;;;;;;;8.30;7.50;;;;;;;3.93;75.27;99115.94;10306805;28;22973;-62
2020/12/31 06:24:10;;;;;;;8.20;7.40;;;;;;;4.07;74.67;99124.53;10299661;28;20046;-62
2020/12/31 06:29:12;;;;;;;10.40;7.50;;;;;;;3.89;74.73;99115.31;10298166;28;20050;-63
2020/12/31 06:34:19;;;;;;;8.50;7.68;;;;;;;3.83;75.01;99119.22;10297663;28;20786;-62
2020/12/31 06:39:22;;;;;;;8.07;7.28;;;;;;;3.88;75.01;99124.97;10315387;28;20062;-62
2020/12/31 06:44:30;;;;;;;8.68;7.78;;;;;;;3.93;74.63;99108.03;10300367;28;20488;-63
2020/12/31 06:49:53;;;;;;;7.90;7.07;;;;;;;3.97;74.29;99112.97;10301817;28;20062;-68
2020/12/31 06:54:54;;;;;;;9.85;7.78;;;;;;;3.99;73.89;99112.84;10303978;28;20096;-61
2020/12/31 06:59:55;;;;;;;9.93;7.50;;;;;;;3.98;73.80;99116.44;10300320;28;20050;-61
2020/12/31 07:04:57;;;;;;;8.40;7.60;;;;;;;4.07;73.00;99115.78;10301706;28;20089;-62
2020/12/31 07:10:02;;;;;;;8.35;7.18;;;;;;;4.06;72.68;99116.75;10365624;22;20049;-66
2020/12/31 07:15:05;;;;;;;8.50;7.65;;;;;;;4.13;72.44;99107.44;10372937;28;20045;-64
2020/12/31 07:20:09;;;;;;;8.82;7.43;;;;;;;4.08;71.56;99112.19;10372313;28;21634;-66
2020/12/31 07:25:16;;;;;;;8.70;7.63;;;;;;;4.00;72.15;99111.91;10368705;28;20054;-65
2020/12/31 07:30:18;;;;;;;8.13;6.18;;;;;;;3.98;72.07;99113.78;10369506;28;20058;-65
2020/12/31 07:35:38;;;;;;;7.78;6.97;;;;;;;4.11;72.35;99111.97;10370360;28;20077;-65
2020/12/31 07:40:56;;;;;;;7.40;6.38;;;;;;;4.21;71.96;99109.53;10367557;28;20054;-66
2020/12/31 07:46:00;;;;;;;7.75;6.53;;;;;;;4.16;71.49;99104.59;10368181;28;20045;-66
2020/12/31 07:51:05;;;;;;;7.20;6.50;;;;;;;4.13;71.36;99107.44;10368635;28;20415;-71
2020/12/31 07:56:11;;;;;;;5.75;5.22;;;;;;;4.18;70.84;99097.41;10369244;28;20049;-66
2020/12/31 08:01:13;;;;;;;6.47;5.78;;;;;;;4.05;70.46;99099.25;10371722;28;20053;-66
2020/12/31 08:06:14;;;;;;;6.35;5.57;;;;;;;3.93;71.08;99079.06;10370467;28;20057;-67
2020/12/31 08:11:15;;;;;;;5.75;4.88;;;;;;;4.06;71.63;99093.03;10370682;28;20100;-67
2020/12/31 08:16:17;;;;;;;6.53;5.38;;;;;;;3.97;70.88;99094.53;10373045;28;20139;-66
2020/12/31 08:21:19;;;;;;;5.30;4.80;;;;;;;3.98;71.24;99090.97;10383047;28;20049;-66
2020/12/31 08:26:21;;;;;;;5.85;4.88;;;;;;;4.14;71.83;99084.56;10378584;28;20057;-68
2020/12/31 08:31:24;;;;;;;6.22;5.50;;;;;;;4.18;72.06;99089.50;10377378;28;20069;-67
2020/12/31 08:36:27;;;;;;;8.02;5.88;;;;;;;4.16;72.40;99086.16;10378888;28;20061;-67
2020/12/31 08:41:33;;;;;;;7.97;6.00;;;;;;;4.20;72.06;99095.53;10376471;28;20064;-67
2020/12/31 08:46:34;;;;;;;9.48;5.78;;;;;;;3.97;72.49;99054.22;10377082;28;20061;-65
2020/12/31 08:51:37;;;;;;;6.13;5.53;;;;;;;4.27;72.46;99087.16;10374670;28;20056;-66
2020/12/31 08:56:38;;;;;;;6.85;6.10;;;;;;;4.28;72.44;99089.69;10373946;28;20553;-67
2020/12/31 09:01:44;;;;;;;7.72;5.57;;;;;;;4.22;72.08;99085.72;10376006;28;20400;-67
2020/12/31 09:06:47;;;;;;;5.47;4.93;;;;;;;4.23;73.02;99087.41;10375043;28;20057;-65
2020/12/31 09:12:01;;;;;;;6.85;5.97;;;;;;;4.25;72.21;99074.94;10375251;28;20045;-65
2020/12/31 09:17:24;;;;;;;7.10;5.90;;;;;;;4.43;72.50;99077.19;10372797;28;20050;-64
2020/12/31 09:22:26;;;;;;;6.07;5.47;;;;;;;4.53;72.06;99072.91;10373411;28;20431;-65
2020/12/31 09:27:28;;;;;;;6.00;5.28;;;;;;;4.51;72.12;99074.81;10373254;28;20131;-66
2020/12/31 09:32:29;;;;;;;5.95;5.32;;;;;;;4.48;72.58;99053.97;10370827;28;21384;-66
2020/12/31 09:37:48;;;;;;;6.60;5.50;;;;;;;4.73;71.45;99067.97;10373283;28;20100;-66
2020/12/31 09:42:49;;;;;;;5.97;4.95;;;;;;;4.84;71.05;99064.50;10368948;28;20065;-67
2020/12/31 09:47:51;;;;;;;5.68;5.00;;;;;;;4.91;70.61;99063.09;10374602;28;20054;-67
2020/12/31 09:52:52;;;;;;;5.03;4.53;;;;;;;4.76;70.91;99054.53;10372864;28;20515;-67
2020/12/31 09:58:06;;;;;;;5.80;5.10;;;;;;;4.83;71.65;99057.53;10389093;28;20503;-67
2020/12/31 10:03:07;;;;;;;5.70;5.07;;;;;;;4.92;71.73;99059.47;10380529;28;20080;-67
2020/12/31 10:08:08;;;;;;;6.05;4.90;;;;;;;4.74;71.84;99037.97;10369207;28;20049;-68
2020/12/31 10:13:10;;;;;;;4.82;4.15;;;;;;;4.56;70.81;99051.63;10375767;28;20062;-66
2020/12/31 10:18:12;;;;;;;4.75;4.35;;;;;;;4.40;71.80;99040.53;10381109;28;20049;-68
2020/12/31 10:23:14;;;;;;;5.07;4.28;;;;;;;4.41;72.11;99052.72;10371181;28;20701;-66
2020/12/31 10:28:17;;;;;;;4.00;3.60;;;;;;;4.06;72.95;99048.25;10373493;28;20095;-66
2020/12/31 10:33:18;;;;;;;5.35;3.72;;;;;;;3.98;73.42;99055.88;10370860;28;20041;-67
2020/12/31 10:38:20;;;;;;;3.97;3.45;;;;;;;3.70;74.15;99048.16;10373766;28;20112;-64
2020/12/31 10:43:21;;;;;;;6.35;3.80;;;;;;;3.66;74.53;99046.72;10369670;28;20127;-67
2020/12/31 10:48:22;;;;;;;4.15;3.50;;;;;;;3.63;75.46;99035.56;10372240;28;21220;-67
2020/12/31 10:53:24;;;;;;;5.25;4.10;;;;;;;3.57;76.32;99036.00;10364966;28;20057;-65
2020/12/31 10:58:25;;;;;;;6.85;5.13;;;;;;;3.81;76.37;99021.06;10370792;28;20065;-66
2020/12/31 11:03:26;;;;;;;4.88;4.20;;;;;;;3.86;75.45;99015.50;10371202;28;20053;-64
2020/12/31 11:08:28;;;;;;;6.90;4.50;;;;;;;3.75;76.48;99010.16;10372062;28;20266;-66
2020/12/31 11:13:29;;;;;;;4.60;4.15;;;;;;;3.86;76.64;98995.25;10371151;28;20069;-64
2020/12/31 11:18:30;;;;;;;4.88;4.43;;;;;;;3.85;77.00;98993.56;10369408;28;20076;-66
2020/12/31 11:23:32;;;;;;;5.55;5.05;;;;;;;3.93;76.91;98989.53;10372427;28;20103;-65
2020/12/31 11:28:33;;;;;;;5.75;4.63;;;;;;;3.93;76.75;98976.38;10370853;28;20104;-65
2020/12/31 11:33:35;;;;;;;4.47;4.07;;;;;;;3.94;77.23;98975.44;10371642;28;20158;-66
2020/12/31 11:38:37;;;;;;;5.30;4.63;;;;;;;3.97;76.82;98964.69;10368829;28;20586;-64
2020/12/31 11:43:39;;;;;;;5.45;4.10;;;;;;;3.94;77.69;98959.63;10370195;28;20079;-65
2020/12/31 11:48:40;;;;;;;4.95;4.45;;;;;;;3.90;77.74;98945.84;10372484;28;20064;-65
2020/12/31 11:53:42;;;;;;;5.20;4.30;;;;;;;3.86;77.94;98953.13;10376179;28;20187;-67
2020/12/31 11:58:43;;;;;;;5.28;4.13;;;;;;;3.87;78.44;98952.19;10375158;28;20057;-67
2020/12/31 12:03:44;;;;;;;5.07;4.10;;;;;;;3.98;78.16;98945.28;10379675;28;20086;-68
2020/12/31 12:08:46;;;;;;;5.95;4.45;;;;;;;3.89;78.27;98942.38;10376572;28;20049;-67
2020/12/31 12:13:47;;;;;;;4.65;3.83;;;;;;;3.87;78.34;98936.41;10371793;28;20064;-67
2020/12/31 12:18:49;;;;;;;6.47;4.78;;;;;;;3.81;78.81;98931.56;10387940;28;20041;-66
2020/12/31 12:23:50;;;;;;;5.03;4.40;;;;;;;3.84;78.30;98928.72;10381968;28;20099;-65
2020/12/31 12:28:52;;;;;;;5.47;4.30;;;;;;;3.78;77.94;98923.91;10380188;28;20061;-66
2020/12/31 12:33:53;;;;;;;6.15;5.55;;;;;;;3.69;77.71;98914.03;10377985;28;20131;-66
2020/12/31 12:38:54;;;;;;;6.10;5.50;;;;;;;3.50;78.21;98890.88;10339144;28;20483;-67
2020/12/31 12:43:56;;;;;;;6.57;4.82;;;;;;;3.60;79.26;98901.56;10374300;28;20132;-66
2020/12/31 12:48:57;;;;;;;5.38;4.40;;;;;;;3.69;78.60;98895.63;10381439;28;20037;-66
2020/12/31 12:53:59;;;;;;;5.97;5.38;;;;;;;3.75;78.73;98896.97;10379137;28;20056;-65
2020/12/31 12:59:01;;;;;;;4.65;4.25;;;;;;;3.70;78.66;98906.03;10380779;28;20049;-65
2020/12/31 13:04:02;;;;;;;6.60;5.97;;;;;;;3.62;79.19;98900.50;10383232;28;20450;-66
2020/12/31 13:09:05;;;;;;;5.43;4.68;;;;;;;3.54;79.18;98895.81;10354062;23;20136;-71
2020/12/31 13:14:06;;;;;;;5.78;4.55;;;;;;;3.55;79.77;98894.00;10338776;28;20970;-73
2020/12/31 13:19:07;;;;;;;5.35;4.82;;;;;;;3.49;79.92;98889.19;10346929;28;20058;-74
2020/12/31 13:24:09;;;;;;;5.53;4.70;;;;;;;3.53;80.35;98894.13;10310779;28;20137;-72
2020/12/31 13:29:10;;;;;;;5.15;4.65;;;;;;;3.50;80.30;98893.53;10309428;28;20054;-73
2020/12/31 13:34:12;;;;;;;6.85;5.05;;;;;;;3.56;80.37;98892.22;10312023;28;20050;-70
2020/12/31 13:39:13;;;;;;;5.82;4.60;;;;;;;3.73;80.39;98889.19;10307084;28;20451;-69
2020/12/31 13:44:14;;;;;;;6.65;4.68;;;;;;;3.83;80.16;98895.44;10290844;28;20444;-71
2020/12/31 13:49:17;;;;;;;4.78;4.35;;;;;;;3.88;79.72;98892.47;10272523;28;20101;-70
2020/12/31 13:54:19;;;;;;;4.47;4.07;;;;;;;3.87;80.43;98889.00;10274702;28;20042;-70
2020/12/31 13:59:20;;;;;;;5.22;4.50;;;;;;;3.85;80.06;98893.53;10271937;28;20065;-71
2020/12/31 14:04:23;;;;;;;5.03;4.53;;;;;;;3.80;80.64;98885.16;10275584;28;20133;-74
2020/12/31 14:09:25;;;;;;;5.35;4.85;;;;;;;3.77;81.23;98885.38;10288549;28;20065;-73
2020/12/31 14:14:26;;;;;;;5.10;4.60;;;;;;;3.89;80.88;98895.00;10274274;28;20086;-71
2020/12/31 14:19:28;;;;;;;4.68;4.00;;;;;;;3.91;81.15;98894.06;10273577;28;20092;-73
2020/12/31 14:24:29;;;;;;;4.20;3.80;;;;;;;3.83;81.52;98895.44;10267466;28;20190;-73
2020/12/31 14:29:31;;;;;;;4.22;3.83;;;;;;;3.87;81.27;98907.44;10272545;28;20504;-72
2020/12/31 14:34:33;;;;;;;4.32;3.95;;;;;;;3.85;82.01;98904.06;10270364;28;23127;-70
2020/12/31 14:39:35;;;;;;;4.93;4.32;;;;;;;3.87;80.92;98899.53;10273035;28;20078;-72
2020/12/31 14:44:36;;;;;;;4.15;3.75;;;;;;;3.81;81.74;98910.50;10283437;28;20069;-72
2020/12/31 14:49:37;;;;;;;4.20;3.80;;;;;;;3.77;81.97;98905.59;10299142;28;20061;-73
2020/12/31 14:54:39;;;;;;;4.65;3.63;;;;;;;3.81;81.56;98909.66;10292380;28;20047;-74
2020/12/31 14:59:41;;;;;;;4.40;3.00;;;;;;;3.82;80.80;98899.03;10290403;28;20227;-73
2020/12/31 15:04:43;;;;;;;2.78;2.45;;;;;;;3.82;81.05;98888.50;10274217;28;20066;-70
2020/12/31 15:09:44;;;;;;;6.00;5.50;;;;;;;3.84;80.82;98902.41;10286923;28;20446;-71
2020/12/31 15:14:46;;;;;;;5.10;4.70;;;;;;;3.88;80.98;98901.19;10271615;28;20464;-70
2020/12/31 15:19:47;;;;;;;16.52;15.23;;;;;;;3.91;81.02;98901.94;10270855;28;20046;-70
2020/12/31 15:24:48;;;;;;;25.73;23.52;;;;;;;3.92;81.13;98887.81;10271374;28;20452;-71
2020/12/31 15:29:50;;;;;;;3.97;3.58;;;;;;;3.91;81.08;98886.16;10269809;28;20055;-71
2020/12/31 15:34:51;;;;;;;113.45;101.22;;;;;;;3.92;81.38;98891.31;10270616;28;20072;-71
2020/12/31 15:39:52;;;;;;;5.30;4.80;;;;;;;3.92;81.37;98893.94;10275720;28;20141;-69
2020/12/31 15:44:54;;;;;;;5.55;5.05;;;;;;;3.96;81.42;98905.88;10291839;28;20058;-70
2020/12/31 15:49:56;;;;;;;19.75;18.35;;;;;;;3.96;80.88;98905.06;10279073;28;20070;-69
2020/12/31 15:54:57;;;;;;;7.55;6.95;;;;;;;3.97;81.18;98904.13;10295293;28;20050;-72
2020/12/31 15:59:58;;;;;;;9.20;8.45;;;;;;;4.05;81.47;98901.75;10309798;28;20058;-70
2020/12/31 16:05:00;;;;;;;6.43;5.75;;;;;;;4.09;80.89;98905.81;10302013;28;20501;-70
2020/12/31 16:10:01;;;;;;;7.45;6.95;;;;;;;4.16;80.75;98899.16;10281855;28;20047;-72
2020/12/31 16:15:07;;;;;;;6.78;6.18;;;;;;;4.21;80.24;98899.63;10289011;28;20057;-71
2020/12/31 16:20:10;;;;;;;4.85;4.35;;;;;;;4.12;80.85;98900.31;10279981;28;20059;-72
2020/12/31 16:25:12;;;;;;;7.75;7.15;;;;;;;4.12;80.99;98900.31;10288470;28;20118;-71
2020/12/31 16:30:13;;;;;;;9.52;7.63;;;;;;;4.10;80.68;98902.25;10292007;28;20043;-69
2020/12/31 16:35:15;;;;;;;10.80;9.57;;;;;;;4.09;81.02;98899.72;10282738;28;20640;-70
2020/12/31 16:40:17;;;;;;;16.42;14.63;;;;;;;4.10;81.14;98888.22;10278711;28;20144;-69
2020/12/31 16:45:18;;;;;;;37.85;27.92;;;;;;;4.20;80.99;98884.81;10292898;28;20054;-71
2020/12/31 16:50:19;;;;;;;31.38;26.20;;;;;;;4.25;80.49;98887.91;10280185;28;20430;-69
2020/12/31 16:55:21;;;;;;;9.52;7.65;;;;;;;4.30;80.80;98894.63;10298838;28;20078;-71
2020/12/31 17:00:22;;;;;;;38.88;30.75;;;;;;;4.36;79.96;98886.25;10276234;28;20061;-68
2020/12/31 17:05:23;;;;;;;8.95;7.10;;;;;;;4.37;79.60;98887.94;10274004;28;20417;-69
2020/12/31 17:10:25;;;;;;;15.93;14.52;;;;;;;4.35;79.61;98885.41;10272108;28;20134;-70
2020/12/31 17:15:26;;;;;;;11.95;10.98;;;;;;;4.32;79.94;98874.28;10273859;28;20059;-69
2020/12/31 17:20:27;;;;;;;23.98;21.10;;;;;;;4.32;79.94;98879.53;10270988;28;20283;-69
2020/12/31 17:25:29;;;;;;;17.33;15.50;;;;;;;4.35;80.01;98890.66;10269718;28;20545;-70
2020/12/31 17:30:30;;;;;;;10.43;9.43;;;;;;;4.28;80.15;98881.56;10281387;28;20063;-70
2020/12/31 17:35:32;;;;;;;8.80;7.90;;;;;;;4.28;80.44;98889.47;10298872;28;20050;-69
2020/12/31 17:40:37;;;;;;;9.02;8.13;;;;;;;4.35;80.42;98888.03;10279789;28;20049;-70
2020/12/31 17:45:39;;;;;;;12.13;11.02;;;;;;;4.39;79.95;98886.03;10270824;28;20157;-68
2020/12/31 17:50:40;;;;;;;10.43;9.35;;;;;;;4.39;80.07;98891.28;10270027;28;20046;-70
2020/12/31 17:55:42;;;;;;;8.68;7.85;;;;;;;4.38;80.69;98889.59;10269671;28;20057;-69
2020/12/31 18:00:46;;;;;;;10.43;9.30;;;;;;;4.38;80.13;98884.34;10281613;28;20393;-70
2020/12/31 18:05:53;;;;;;;15.80;12.57;;;;;;;4.35;80.36;98889.84;10271995;28;20059;-70
2020/12/31 18:10:55;;;;;;;11.43;10.32;;;;;;;4.39;80.75;98886.03;10293880;28;20078;-71
2020/12/31 18:15:57;;;;;;;7.90;7.10;;;;;;;4.38;80.69;98894.88;10265444;28;20197;-69
2020/12/31 18:20:59;;;;;;;8.15;7.38;;;;;;;4.34;80.96;98898.69;10303915;28;20109;-70
2020/12/31 18:26:00;;;;;;;7.95;7.03;;;;;;;4.36;81.35;98902.06;10265341;28;20101;-69
2020/12/31 18:31:01;;;;;;;7.47;6.72;;;;;;;4.34;81.54;98899.56;10271654;28;20540;-68
2020/12/31 18:36:03;;;;;;;8.25;7.53;;;;;;;4.34;81.23;98889.00;10266454;28;20047;-69
2020/12/31 18:41:04;;;;;;;9.80;8.77;;;;;;;4.29;81.45;98890.31;10276873;28;20436;-69
2020/12/31 18:46:05;;;;;;;20.90;14.88;;;;;;;4.33;81.90;98891.75;10272323;28;20061;-71
2020/12/31 18:51:07;;;;;;;9.35;8.38;;;;;;;4.33;81.94;98889.13;10276363;28;20117;-69
2020/12/31 18:56:08;;;;;;;8.52;7.55;;;;;;;4.39;81.82;98893.94;10281902;28;20058;-71
2020/12/31 19:01:12;;;;;;;9.43;7.95;;;;;;;4.41;81.97;98895.50;10293208;28;20056;-71
2020/12/31 19:06:13;;;;;;;12.75;11.07;;;;;;;4.43;82.01;98903.28;10298661;28;20644;-70
2020/12/31 19:11:15;;;;;;;9.60;8.60;;;;;;;4.46;81.66;98902.19;10277852;28;20050;-71
2020/12/31 19:16:16;;;;;;;10.70;9.52;;;;;;;4.38;81.75;98886.97;10333418;23;20108;-67
2020/12/31 19:21:18;;;;;;;9.68;8.68;;;;;;;4.53;81.24;98903.41;10344267;28;20058;-66
2020/12/31 19:26:19;;;;;;;10.48;8.45;;;;;;;4.52;81.31;98909.63;10329282;28;20138;-68
2020/12/31 19:31:20;;;;;;;21.55;15.30;;;;;;;4.54;81.46;98913.81;10328790;28;20050;-66
2020/12/31 19:36:22;;;;;;;11.10;9.88;;;;;;;4.53;81.53;98908.66;10332447;28;20731;-66
2020/12/31 19:41:23;;;;;;;11.68;10.07;;;;;;;4.58;81.58;98912.63;10327721;28;20385;-68
2020/12/31 19:46:25;;;;;;;51.33;40.05;;;;;;;4.62;82.05;98915.03;10327814;28;21077;-68
2020/12/31 19:51:34;;;;;;;15.82;14.07;;;;;;;4.67;81.36;98915.50;10328386;28;20523;-67
2020/12/31 19:56:35;;;;;;;17.83;15.98;;;;;;;4.48;80.71;98890.56;10329840;28;20527;-67
2020/12/31 20:01:36;;;;;;;44.15;32.20;;;;;;;4.59;81.01;98914.31;10326273;28;20057;-68
2020/12/31 20:06:38;;;;;;;13.15;11.63;;;;;;;4.59;81.47;98919.59;10316668;28;20124;-68
2020/12/31 20:11:39;;;;;;;32.60;24.10;;;;;;;4.54;81.26;98924.38;10323963;28;20058;-66
2020/12/31 20:16:46;;;;;;;22.88;18.10;;;;;;;4.57;81.09;98921.50;10333043;28;20050;-66
2020/12/31 20:21:51;;;;;;;18.90;16.30;;;;;;;4.53;81.07;98925.31;10338835;28;20062;-67
2020/12/31 20:26:55;;;;;;;11.95;10.75;;;;;;;4.56;81.25;98933.00;10333202;28;20508;-69
2020/12/31 20:32:01;;;;;;;13.43;12.02;;;;;;;4.55;81.45;98930.50;10338709;28;20131;-70
2020/12/31 20:37:08;;;;;;;13.85;11.88;;;;;;;4.58;81.52;98938.16;10336611;28;20135;-67
2020/12/31 20:42:10;;;;;;;19.52;16.15;;;;;;;4.57;81.13;98947.03;10335582;28;20045;-67
2020/12/31 20:47:12;;;;;;;28.45;21.48;;;;;;;4.56;81.17;98940.06;10335839;28;20057;-66
2020/12/31 20:52:13;;;;;;;28.02;18.67;;;;;;;4.54;81.74;98955.16;10337508;28;20108;-66
2020/12/31 20:57:14;;;;;;;25.20;21.20;;;;;;;4.55;81.54;98944.50;10335565;28;20074;-67
2020/12/31 21:02:16;;;;;;;15.52;13.82;;;;;;;4.58;81.55;98932.88;10332549;28;20084;-67
2020/12/31 21:07:18;;;;;;;13.80;12.50;;;;;;;4.53;81.24;98930.59;10358557;28;20053;-67
2020/12/31 21:12:19;;;;;;;11.70;10.60;;;;;;;4.55;80.76;98938.41;10343568;28;20064;-68
2020/12/31 21:17:22;;;;;;;15.82;14.32;;;;;;;4.59;81.15;98951.22;10336656;28;20053;-66
2020/12/31 21:22:24;;;;;;;22.92;20.48;;;;;;;4.57;81.30;98957.56;10338359;28;20049;-67
2020/12/31 21:27:26;;;;;;;13.68;12.38;;;;;;;4.53;81.45;98954.31;10334898;28;20057;-67
2020/12/31 21:32:32;;;;;;;14.40;12.90;;;;;;;4.56;81.84;98956.72;10335226;28;20062;-67
2020/12/31 21:37:35;;;;;;;13.55;12.15;;;;;;;4.37;82.14;98941.47;10334342;28;20054;-65
2020/12/31 21:42:37;;;;;;;14.88;13.38;;;;;;;4.48;82.90;98959.09;10334133;28;20054;-68
2020/12/31 21:47:47;;;;;;;18.65;16.98;;;;;;;4.48;82.62;98938.00;10335546;28;20045;-68
2020/12/31 21:52:48;;;;;;;15.07;13.57;;;;;;;4.58;82.51;98949.53;10334299;28;20058;-67
2020/12/31 21:57:50;;;;;;;12.95;11.65;;;;;;;4.57;82.55;98945.22;10333479;28;20413;-67
2020/12/31 22:02:54;;;;;;;14.73;13.20;;;;;;;4.41;82.22;98915.72;10333565;28;20054;-68
2020/12/31 22:07:55;;;;;;;14.47;13.07;;;;;;;4.50;82.18;98936.09;10332276;28;20061;-69
2020/12/31 22:12:56;;;;;;;28.85;23.77;;;;;;;4.62;82.16;98950.13;10334641;28;20156;-68
2020/12/31 22:17:58;;;;;;;14.38;12.98;;;;;;;4.52;82.24;98928.94;10333842;28;20061;-67
2020/12/31 22:22:59;;;;;;;14.98;13.45;;;;;;;4.57;82.31;98947.84;10340268;28;20073;-66
2020/12/31 22:28:01;;;;;;;14.32;12.25;;;;;;;4.64;82.71;98955.28;10329446;28;20065;-69
2020/12/31 22:33:02;;;;;;;15.05;13.50;;;;;;;4.65;82.51;98939.34;10330464;28;20066;-67
2020/12/31 22:38:04;;;;;;;14.32;12.82;;;;;;;4.71;81.87;98948.59;10329923;28;20111;-66
2020/12/31 22:43:05;;;;;;;14.07;12.68;;;;;;;4.55;82.19;98936.59;10334531;28;20041;-67
2020/12/31 22:48:07;;;;;;;26.42;20.70;;;;;;;4.59;82.30;98950.38;10333680;28;20058;-67
2020/12/31 22:53:08;;;;;;;14.27;12.77;;;;;;;4.60;82.69;98947.59;10334654;28;20568;-66
2020/12/31 22:58:10;;;;;;;14.23;12.75;;;;;;;4.66;82.42;98956.84;10332738;28;20049;-66
2020/12/31 23:03:12;;;;;;;15.05;13.55;;;;;;;4.71;82.56;98962.59;10327896;28;20104;-67
2020/12/31 23:08:13;;;;;;;224.77;197.82;;;;;;;4.74;82.46;98948.34;10329237;28;20144;-67
2020/12/31 23:13:14;;;;;;;139.82;125.38;;;;;;;4.63;82.86;98941.28;10330178;28;20636;-66
2020/12/31 23:18:16;;;;;;;62.97;52.90;;;;;;;4.77;82.40;98953.38;10328142;28;20524;-66
2020/12/31 23:23:17;;;;;;;81.28;66.97;;;;;;;4.78;83.01;98947.16;10332304;28;20046;-66
2020/12/31 23:28:18;;;;;;;64.43;50.78;;;;;;;4.82;82.57;98950.38;10335892;28;20052;-66